LEAS 210630Z 21008KT 9999 FEW060 14/06 Q1022 NOSIG